createdAt,value
2023-08-22T00:00:32.758Z,2.95
2023-08-22T00:02:34.445Z,3.70
2023-08-22T00:04:37.118Z,3.75
2023-08-22T00:06:38.782Z,3.28
2023-08-22T00:08:40.504Z,2.63
2023-08-22T00:10:42.193Z,3.42
2023-08-22T00:12:44.413Z,3.00
2023-08-22T00:14:46.842Z,3.30
2023-08-22T00:16:49.071Z,3.65
2023-08-22T00:18:50.594Z,3.50
2023-08-22T00:20:52.302Z,3.15
2023-08-22T00:22:54.193Z,3.20
2023-08-22T00:24:55.825Z,3.47
2023-08-22T00:26:58.493Z,3.85
2023-08-22T00:29:00.135Z,3.00
2023-08-22T00:31:01.770Z,3.13
2023-08-22T00:33:03.824Z,2.88
2023-08-22T00:37:07.784Z,3.00
2023-08-22T00:41:11.377Z,2.78
2023-08-22T00:43:12.969Z,2.95
2023-08-22T00:45:14.751Z,2.90
2023-08-22T00:47:17.577Z,3.50
2023-08-22T00:49:19.385Z,3.00
2023-08-22T00:51:21.593Z,3.70
2023-08-22T00:53:23.218Z,3.13
2023-08-22T00:55:25.362Z,3.30
2023-08-22T00:57:27.676Z,2.75
2023-08-22T00:59:30.836Z,3.25
2023-08-22T01:01:32.840Z,2.40
2023-08-22T01:03:35.334Z,3.08
2023-08-22T01:05:43.232Z,3.00
2023-08-22T01:07:56.384Z,3.03
2023-08-22T01:10:14.525Z,2.70
2023-08-22T01:12:41.265Z,3.33
2023-08-22T01:14:49.946Z,2.88
2023-08-22T01:16:52.725Z,3.15
2023-08-22T01:18:54.502Z,3.40
2023-08-22T01:20:59.429Z,3.58
2023-08-22T01:23:01.546Z,3.58
2023-08-22T01:27:08.309Z,3.20
2023-08-22T01:29:14.602Z,3.22
2023-08-22T01:31:34.379Z,2.85
2023-08-22T01:33:40.640Z,2.95
2023-08-22T01:35:49.590Z,2.92
2023-08-22T01:37:54.319Z,3.28
2023-08-22T01:39:57.797Z,3.15
2023-08-22T01:42:00.200Z,3.40
2023-08-22T01:44:04.255Z,3.20
2023-08-22T01:46:08.248Z,3.40
2023-08-22T01:48:09.975Z,2.97
2023-08-22T01:50:12.122Z,3.13
2023-08-22T01:52:13.759Z,2.70
2023-08-22T01:54:15.408Z,2.72
2023-08-22T01:56:16.988Z,3.33
2023-08-22T01:58:19.081Z,3.42
2023-08-22T02:02:22.404Z,3.33
2023-08-22T02:04:24.029Z,2.75
2023-08-22T02:06:25.715Z,3.10
2023-08-22T02:08:27.419Z,3.40
2023-08-22T02:10:28.976Z,3.08
2023-08-22T02:12:30.895Z,3.10
2023-08-22T02:14:32.546Z,3.08
2023-08-22T02:16:34.979Z,2.80
2023-08-22T02:18:36.600Z,3.17
2023-08-22T02:20:38.656Z,3.20
2023-08-22T02:24:43.095Z,3.00
2023-08-22T02:26:44.810Z,2.90
2023-08-22T02:28:46.557Z,3.22
2023-08-22T02:30:48.438Z,3.30
2023-08-22T02:32:50.077Z,3.22
2023-08-22T02:34:51.722Z,3.22
2023-08-22T02:36:53.284Z,3.00
2023-08-22T02:38:55.141Z,2.90
2023-08-22T02:40:56.822Z,3.13
2023-08-22T02:42:58.688Z,3.17
2023-08-22T02:45:00.800Z,3.03
2023-08-22T02:49:04.109Z,3.15
2023-08-22T02:51:06.309Z,3.13
2023-08-22T02:53:10.780Z,3.30
2023-08-22T02:55:14.023Z,3.13
2023-08-22T02:57:15.611Z,3.38
2023-08-22T02:59:17.761Z,2.92
2023-08-22T03:03:21.975Z,3.28
2023-08-22T03:05:24.307Z,3.20
2023-08-22T03:07:26.149Z,2.90
2023-08-22T03:09:27.851Z,2.95
2023-08-22T03:11:30.240Z,2.78
2023-08-22T03:13:32.203Z,3.30
2023-08-22T03:15:33.871Z,3.30
2023-08-22T03:17:36.659Z,3.17
2023-08-22T03:19:39.074Z,3.38
2023-08-22T03:21:40.693Z,2.97
2023-08-22T03:23:42.325Z,3.03
2023-08-22T03:25:45.631Z,3.13
2023-08-22T03:27:47.322Z,3.20
2023-08-22T03:29:49.486Z,3.25
2023-08-22T03:31:51.175Z,3.00
2023-08-22T03:35:56.709Z,2.97
2023-08-22T03:37:58.699Z,3.03
2023-08-22T03:40:02.456Z,2.80
2023-08-22T03:42:04.664Z,3.45
2023-08-22T03:44:06.396Z,3.85
2023-08-22T03:46:11.118Z,3.47
2023-08-22T03:48:13.998Z,3.42
2023-08-22T03:50:15.657Z,3.40
2023-08-22T03:52:17.285Z,3.50
2023-08-22T03:54:19.015Z,3.60
2023-08-22T03:56:20.662Z,3.40
2023-08-22T03:58:23.055Z,3.83
2023-08-22T04:00:25.063Z,3.70
2023-08-22T04:02:27.826Z,3.60
2023-08-22T04:04:29.950Z,3.25
2023-08-22T04:06:31.601Z,3.63
2023-08-22T04:08:33.281Z,3.95
2023-08-22T04:10:36.047Z,3.65
2023-08-22T04:12:37.611Z,3.53
2023-08-22T04:14:39.387Z,3.63
2023-08-22T04:16:41.001Z,4.00
2023-08-22T04:18:42.624Z,3.83
2023-08-22T04:20:44.291Z,3.78
2023-08-22T04:22:46.039Z,4.78
2023-08-22T04:24:48.527Z,3.53
2023-08-22T04:26:50.259Z,3.92
2023-08-22T04:28:52.469Z,4.30
2023-08-22T04:30:59.295Z,3.97
2023-08-22T04:33:02.081Z,3.55
2023-08-22T04:35:04.202Z,4.00
2023-08-22T04:37:08.249Z,3.78
2023-08-22T04:39:11.134Z,2.80
2023-08-22T04:41:13.675Z,3.33
2023-08-22T04:43:26.963Z,3.03
2023-08-22T04:45:28.626Z,3.67
2023-08-22T04:47:30.641Z,3.75
2023-08-22T04:49:32.554Z,3.72
2023-08-22T04:53:36.270Z,3.88
2023-08-22T04:55:37.953Z,3.50
2023-08-22T04:57:39.799Z,3.65
2023-08-22T04:59:41.595Z,3.47
2023-08-22T05:01:43.437Z,3.13
2023-08-22T05:03:46.484Z,3.13
2023-08-22T05:05:48.366Z,3.60
2023-08-22T05:07:50.412Z,3.70
2023-08-22T05:11:54.267Z,3.15
2023-08-22T05:13:56.630Z,3.38
2023-08-22T05:15:58.403Z,3.60
2023-08-22T05:18:00.055Z,3.42
2023-08-22T05:20:01.714Z,3.88
2023-08-22T05:22:04.892Z,3.38
2023-08-22T05:24:06.653Z,3.42
2023-08-22T05:26:08.805Z,3.40
2023-08-22T05:28:10.532Z,4.22
2023-08-22T05:30:12.663Z,3.60
2023-08-22T05:32:14.236Z,3.30
2023-08-22T05:34:16.161Z,3.85
2023-08-22T05:36:17.948Z,4.15
2023-08-22T05:38:19.791Z,3.50
2023-08-22T05:40:21.407Z,3.47
2023-08-22T05:42:24.288Z,4.82
2023-08-22T05:44:26.765Z,4.03
2023-08-22T05:46:29.043Z,3.80
2023-08-22T05:48:31.377Z,4.13
2023-08-22T05:50:33.131Z,4.95
2023-08-22T05:52:34.937Z,4.88
2023-08-22T05:54:37.146Z,4.20
2023-08-22T05:56:40.210Z,4.40
2023-08-22T05:58:42.089Z,4.53
2023-08-22T06:00:44.353Z,4.75
2023-08-22T06:02:48.293Z,4.60
2023-08-22T06:04:50.867Z,5.28
2023-08-22T06:06:52.491Z,5.82
2023-08-22T06:08:54.159Z,5.90
2023-08-22T06:10:55.768Z,5.47
2023-08-22T06:12:57.523Z,6.10
2023-08-22T06:14:59.111Z,5.25
2023-08-22T06:17:00.760Z,5.57
2023-08-22T06:19:02.612Z,5.57
2023-08-22T06:21:04.263Z,5.40
2023-08-22T06:23:06.935Z,5.32
2023-08-22T06:25:09.136Z,5.28
2023-08-22T06:27:10.708Z,5.55
2023-08-22T06:29:12.344Z,5.82
2023-08-22T06:31:13.934Z,5.68
2023-08-22T06:33:17.898Z,5.78
2023-08-22T06:35:21.763Z,5.78
2023-08-22T06:37:23.398Z,5.57
2023-08-22T06:39:24.984Z,5.45
2023-08-22T06:41:27.852Z,5.90
2023-08-22T06:43:29.565Z,6.10
2023-08-22T06:45:31.752Z,5.72
2023-08-22T06:47:33.522Z,5.78
2023-08-22T06:49:36.182Z,5.95
2023-08-22T06:51:37.838Z,6.28
2023-08-22T06:53:39.820Z,6.00
2023-08-22T06:57:43.932Z,5.28
2023-08-22T06:59:45.512Z,6.35
2023-08-22T07:01:47.083Z,6.50
2023-08-22T07:03:58.899Z,6.00
2023-08-22T07:06:08.350Z,5.82
2023-08-22T07:08:09.902Z,4.82
2023-08-22T07:10:13.841Z,5.97
2023-08-22T07:12:17.086Z,5.80
2023-08-22T07:14:18.717Z,5.55
2023-08-22T07:16:20.344Z,6.32
2023-08-22T07:18:22.019Z,6.07
2023-08-22T07:20:23.895Z,5.80
2023-08-22T07:22:25.860Z,5.75
2023-08-22T07:24:27.398Z,5.68
2023-08-22T07:26:29.196Z,5.88
2023-08-22T07:28:30.905Z,5.68
2023-08-22T07:30:35.253Z,5.95
2023-08-22T07:32:36.972Z,5.38
2023-08-22T07:34:38.701Z,5.55
2023-08-22T07:36:40.285Z,5.80
2023-08-22T07:38:41.870Z,6.63
2023-08-22T07:40:43.477Z,6.40
2023-08-22T07:42:45.264Z,6.07
2023-08-22T07:44:46.910Z,6.07
2023-08-22T07:46:48.518Z,6.05
2023-08-22T07:48:50.077Z,6.03
2023-08-22T07:50:51.976Z,5.90
2023-08-22T07:54:55.536Z,5.85
2023-08-22T07:57:08.317Z,5.60
2023-08-22T07:59:14.553Z,6.38
2023-08-22T08:01:16.916Z,6.43
2023-08-22T08:03:18.769Z,6.15
2023-08-22T08:05:21.018Z,5.88
2023-08-22T08:07:22.546Z,5.80
2023-08-22T08:09:34.276Z,5.68
2023-08-22T08:11:36.870Z,5.88
2023-08-22T08:13:38.969Z,6.53
2023-08-22T08:15:42.332Z,6.47
2023-08-22T08:17:44.112Z,5.68
2023-08-22T08:19:46.517Z,6.10
2023-08-22T08:21:48.272Z,7.13
2023-08-22T08:23:49.954Z,6.88
2023-08-22T08:25:51.595Z,6.72
2023-08-22T08:27:53.192Z,6.93
2023-08-22T08:29:54.763Z,6.70
2023-08-22T08:31:57.427Z,7.03
2023-08-22T08:33:59.370Z,6.80
2023-08-22T08:36:00.966Z,6.68
2023-08-22T08:38:02.666Z,6.30
2023-08-22T08:40:07.533Z,5.80
2023-08-22T08:42:13.454Z,6.43
2023-08-22T08:44:16.272Z,6.25
2023-08-22T08:46:18.697Z,6.30
2023-08-22T08:48:22.044Z,5.95
2023-08-22T08:50:24.625Z,6.30
2023-08-22T08:52:27.580Z,6.55
2023-08-22T08:54:29.939Z,6.20
2023-08-22T08:56:31.750Z,6.32
2023-08-22T08:58:33.328Z,6.57
2023-08-22T09:02:37.233Z,5.38
2023-08-22T09:06:40.453Z,5.80
2023-08-22T09:09:02.812Z,5.90
2023-08-22T09:11:05.010Z,5.93
2023-08-22T09:13:06.624Z,6.07
2023-08-22T09:15:10.595Z,6.13
2023-08-22T09:17:16.196Z,5.85
2023-08-22T09:19:17.912Z,5.22
2023-08-22T09:21:19.939Z,5.30
2023-08-22T09:23:29.528Z,5.03
2023-08-22T09:25:40.198Z,5.80
2023-08-22T09:27:41.751Z,5.90
2023-08-22T09:29:43.590Z,5.95
2023-08-22T09:31:45.236Z,5.57
2023-08-22T09:33:48.195Z,5.63
2023-08-22T09:35:56.111Z,5.63
2023-08-22T09:38:06.093Z,5.05
2023-08-22T09:40:11.045Z,5.82
2023-08-22T09:42:12.727Z,5.60
2023-08-22T09:44:15.256Z,5.43
2023-08-22T09:46:18.545Z,5.40
2023-08-22T09:48:25.922Z,5.15
2023-08-22T09:50:29.166Z,5.22
2023-08-22T09:52:31.562Z,4.90
2023-08-22T09:54:34.146Z,5.93
2023-08-22T09:56:35.765Z,6.20
2023-08-22T09:58:38.613Z,5.68
2023-08-22T10:00:40.536Z,5.50
2023-08-22T10:02:44.253Z,4.88
2023-08-22T10:04:47.250Z,5.55
2023-08-22T10:06:52.432Z,5.30
2023-08-22T10:08:56.535Z,5.63
2023-08-22T10:10:59.844Z,5.35
2023-08-22T10:13:04.445Z,5.45
2023-08-22T10:15:07.922Z,4.78
2023-08-22T10:17:16.729Z,5.30
2023-08-22T10:19:20.912Z,5.57
2023-08-22T10:21:24.795Z,4.10
2023-08-22T10:23:52.818Z,4.90
2023-08-22T10:25:54.553Z,5.15
2023-08-22T10:28:04.713Z,5.35
2023-08-22T10:30:17.204Z,5.53
2023-08-22T10:32:22.503Z,5.22
2023-08-22T10:34:24.366Z,4.78
2023-08-22T10:36:26.901Z,4.63
2023-08-22T10:38:28.911Z,5.10
2023-08-22T10:40:32.900Z,4.68
2023-08-22T10:42:34.427Z,4.93
2023-08-22T10:44:38.161Z,4.72
2023-08-22T10:47:00.116Z,5.90
2023-08-22T10:49:04.439Z,5.32
2023-08-22T10:51:07.784Z,4.60
2023-08-22T10:53:26.172Z,4.43
2023-08-22T10:55:27.831Z,4.63
2023-08-22T10:57:37.379Z,4.57
2023-08-22T11:00:00.127Z,4.40
2023-08-22T11:02:02.233Z,4.15
2023-08-22T11:04:06.046Z,4.40
2023-08-22T11:06:12.593Z,4.38
2023-08-22T11:08:15.326Z,4.50
2023-08-22T11:10:19.438Z,4.65
2023-08-22T11:12:22.420Z,5.18
2023-08-22T11:14:23.997Z,4.78
2023-08-22T11:16:25.707Z,4.38
2023-08-22T11:18:28.213Z,4.18
2023-08-22T11:20:29.785Z,4.22
2023-08-22T11:22:33.229Z,4.40
2023-08-22T11:24:35.315Z,3.97
2023-08-22T11:28:38.647Z,4.53
2023-08-22T11:30:40.296Z,3.97
2023-08-22T11:34:43.507Z,3.90
2023-08-22T11:36:45.118Z,3.90
2023-08-22T11:38:49.569Z,4.13
2023-08-22T11:40:51.130Z,4.28
2023-08-22T11:42:53.115Z,3.90
2023-08-22T11:45:06.508Z,3.92
2023-08-22T11:47:12.797Z,3.80
2023-08-22T11:49:23.377Z,4.30
2023-08-22T11:53:30.667Z,4.53
2023-08-22T11:55:33.256Z,4.50
2023-08-22T11:57:36.951Z,4.78
2023-08-22T11:59:41.710Z,3.90
2023-08-22T12:01:43.757Z,4.63
2023-08-22T12:03:45.429Z,4.32
2023-08-22T12:07:51.577Z,3.88
2023-08-22T12:10:04.968Z,3.22
2023-08-22T12:12:13.926Z,4.10
2023-08-22T12:14:16.877Z,4.40
2023-08-22T12:16:18.801Z,4.10
2023-08-22T12:18:31.317Z,4.85
2023-08-22T12:20:33.773Z,4.05
2023-08-22T12:22:35.331Z,4.13
2023-08-22T12:24:37.275Z,4.55
2023-08-22T12:26:38.910Z,4.65
2023-08-22T12:28:40.608Z,4.03
2023-08-22T12:30:42.452Z,4.65
2023-08-22T12:32:45.044Z,4.80
2023-08-22T12:34:46.997Z,5.07
2023-08-22T12:36:48.646Z,4.65
2023-08-22T12:38:50.183Z,5.30
2023-08-22T12:40:51.703Z,5.07
2023-08-22T12:42:53.244Z,4.95
2023-08-22T12:44:55.020Z,4.50
2023-08-22T12:46:58.550Z,4.65
2023-08-22T12:49:00.230Z,4.60
2023-08-22T12:53:10.046Z,5.57
2023-08-22T12:55:11.642Z,4.57
2023-08-22T12:57:13.243Z,5.43
2023-08-22T13:01:17.072Z,5.00
2023-08-22T13:03:19.783Z,4.97
2023-08-22T13:05:21.524Z,5.07
2023-08-22T13:07:23.645Z,5.25
2023-08-22T13:09:25.252Z,5.35
2023-08-22T13:11:26.989Z,5.10
2023-08-22T13:13:28.636Z,5.75
2023-08-22T13:17:33.030Z,5.13
2023-08-22T13:19:34.820Z,4.90
2023-08-22T13:21:36.766Z,5.70
2023-08-22T13:23:38.425Z,6.85
2023-08-22T13:25:41.818Z,6.63
2023-08-22T13:27:44.249Z,5.90
2023-08-22T13:29:46.224Z,5.35
2023-08-22T13:31:48.524Z,7.40
2023-08-22T13:33:50.320Z,4.82
2023-08-22T13:35:51.846Z,6.30
2023-08-22T13:37:53.418Z,5.93
2023-08-22T13:41:56.787Z,6.10
2023-08-22T13:43:58.750Z,5.32
2023-08-22T13:48:04.528Z,5.05
2023-08-22T13:50:07.402Z,5.97
2023-08-22T13:52:09.021Z,5.63
2023-08-22T13:56:14.335Z,7.32
2023-08-22T13:58:16.828Z,5.60
2023-08-22T14:00:18.775Z,5.53
2023-08-22T14:02:20.733Z,6.25
2023-08-22T14:04:22.440Z,6.57
2023-08-22T14:06:24.028Z,5.90
2023-08-22T14:10:27.126Z,5.68
2023-08-22T14:14:30.625Z,6.28
2023-08-22T14:16:32.969Z,4.63
2023-08-22T14:18:34.828Z,6.57
2023-08-22T14:20:36.486Z,6.20
2023-08-22T14:24:39.577Z,7.13
2023-08-22T14:28:42.850Z,7.55
2023-08-22T14:30:44.764Z,6.05
2023-08-22T14:32:46.354Z,5.88
2023-08-22T14:36:49.527Z,5.82
2023-08-22T14:38:52.041Z,5.85
2023-08-22T14:40:55.782Z,5.53
2023-08-22T14:42:57.327Z,5.75
2023-08-22T14:47:00.778Z,5.85
2023-08-22T14:49:02.906Z,5.47
2023-08-22T14:51:04.527Z,5.70
2023-08-22T14:53:06.078Z,6.50
2023-08-22T14:57:11.015Z,7.35
2023-08-22T14:59:12.836Z,6.45
2023-08-22T15:01:15.609Z,6.63
2023-08-22T15:03:17.850Z,5.22
2023-08-22T15:05:19.529Z,5.68
2023-08-22T15:07:22.499Z,6.55
2023-08-22T15:09:24.300Z,6.22
2023-08-22T15:11:27.147Z,7.95
2023-08-22T15:13:32.200Z,5.80
2023-08-22T15:15:36.371Z,5.75
2023-08-22T15:17:38.247Z,6.40
2023-08-22T15:19:39.895Z,5.88
2023-08-22T15:21:41.538Z,5.65
2023-08-22T15:23:44.354Z,5.72
2023-08-22T15:25:50.977Z,5.55
2023-08-22T15:27:52.548Z,6.50
2023-08-22T15:29:54.066Z,6.35
2023-08-22T15:33:57.713Z,12.73
2023-08-22T15:36:00.698Z,5.85
2023-08-22T15:38:02.387Z,6.93
2023-08-22T15:40:08.136Z,6.78
2023-08-22T15:42:09.950Z,6.65
2023-08-22T15:44:11.592Z,5.90
2023-08-22T15:46:13.756Z,5.80
2023-08-22T15:48:16.729Z,6.63
2023-08-22T15:50:18.647Z,5.78
2023-08-22T15:52:30.963Z,6.55
2023-08-22T15:54:40.832Z,5.78
2023-08-22T15:56:42.434Z,5.13
2023-08-22T16:00:45.833Z,4.68
2023-08-22T16:02:48.032Z,5.78
2023-08-22T16:04:49.697Z,5.22
2023-08-22T16:08:53.541Z,5.00
2023-08-22T16:10:55.196Z,5.45
2023-08-22T16:12:56.794Z,5.30
2023-08-22T16:14:58.366Z,5.40
2023-08-22T16:17:00.637Z,5.80
2023-08-22T16:19:02.218Z,5.90
2023-08-22T16:21:03.802Z,6.13
2023-08-22T16:23:05.380Z,6.07
2023-08-22T16:25:07.616Z,5.63
2023-08-22T16:27:10.678Z,7.40
2023-08-22T16:29:12.394Z,5.97
2023-08-22T16:33:15.745Z,8.45
2023-08-22T16:35:17.689Z,11.35
2023-08-22T16:37:19.309Z,6.28
2023-08-22T16:41:23.057Z,5.03
2023-08-22T16:43:25.463Z,5.05
2023-08-22T16:45:27.047Z,5.43
2023-08-22T16:47:28.592Z,4.97
2023-08-22T16:49:30.133Z,4.32
2023-08-22T16:51:32.101Z,5.72
2023-08-22T16:53:40.182Z,4.93
2023-08-22T16:55:43.796Z,4.90
2023-08-22T16:57:46.255Z,5.05
2023-08-22T16:59:48.238Z,4.60
2023-08-22T17:03:54.034Z,5.15
2023-08-22T17:05:55.984Z,4.63
2023-08-22T17:07:57.566Z,4.93
2023-08-22T17:09:59.194Z,4.60
2023-08-22T17:14:02.898Z,4.75
2023-08-22T17:16:05.037Z,4.65
2023-08-22T17:18:06.788Z,4.80
2023-08-22T17:20:09.932Z,4.88
2023-08-22T17:22:11.529Z,5.25
2023-08-22T17:24:14.404Z,4.20
2023-08-22T17:26:16.834Z,5.22
2023-08-22T17:28:18.865Z,4.13
2023-08-22T17:30:20.796Z,4.28
2023-08-22T17:32:22.477Z,4.85
2023-08-22T17:34:24.056Z,4.25
2023-08-22T17:36:26.009Z,4.10
2023-08-22T17:38:27.596Z,4.25
2023-08-22T17:40:29.164Z,4.50
2023-08-22T17:42:31.710Z,4.32
2023-08-22T17:44:33.296Z,4.72
2023-08-22T17:46:34.932Z,4.55
2023-08-22T17:48:36.498Z,3.97
2023-08-22T17:50:38.066Z,4.50
2023-08-22T17:52:39.691Z,4.40
2023-08-22T17:54:41.472Z,4.22
2023-08-22T17:56:43.313Z,4.32
2023-08-22T17:58:46.543Z,4.45
2023-08-22T18:00:52.829Z,4.32
2023-08-22T18:02:55.185Z,4.40
2023-08-22T18:04:56.964Z,4.35
2023-08-22T18:06:58.524Z,4.50
2023-08-22T18:09:01.556Z,4.72
2023-08-22T18:11:03.706Z,3.75
2023-08-22T18:13:05.577Z,4.53
2023-08-22T18:15:07.493Z,4.85
2023-08-22T18:17:09.347Z,5.18
2023-08-22T18:19:11.318Z,4.50
2023-08-22T18:21:14.059Z,4.50
2023-08-22T18:23:15.664Z,4.68
2023-08-22T18:25:17.522Z,5.05
2023-08-22T18:29:20.630Z,4.72
2023-08-22T18:31:22.753Z,4.43
2023-08-22T18:33:24.973Z,4.30
2023-08-22T18:35:26.625Z,4.13
2023-08-22T18:37:28.203Z,4.75
2023-08-22T18:39:29.795Z,4.55
2023-08-22T18:41:31.324Z,4.30
2023-08-22T18:43:32.891Z,4.45
2023-08-22T18:45:35.113Z,3.63
2023-08-22T18:47:36.701Z,4.55
2023-08-22T18:49:38.264Z,4.50
2023-08-22T18:51:40.330Z,4.72
2023-08-22T18:53:41.883Z,4.32
2023-08-22T18:55:43.422Z,4.10
2023-08-22T18:57:45.279Z,4.20
2023-08-22T18:59:47.620Z,4.28
2023-08-22T19:01:49.207Z,4.22
2023-08-22T19:03:51.079Z,3.90
2023-08-22T19:07:55.152Z,4.40
2023-08-22T19:09:56.694Z,4.50
2023-08-22T19:11:58.268Z,4.32
2023-08-22T19:13:59.855Z,4.43
2023-08-22T19:16:01.895Z,3.95
2023-08-22T19:18:04.164Z,4.10
2023-08-22T19:20:06.072Z,5.05
2023-08-22T19:24:12.100Z,4.85
2023-08-22T19:26:13.644Z,4.38
2023-08-22T19:28:15.192Z,4.45
2023-08-22T19:30:18.582Z,4.40
2023-08-22T19:32:35.028Z,4.35
2023-08-22T19:34:41.768Z,4.47
2023-08-22T19:36:43.313Z,4.80
2023-08-22T19:38:44.858Z,4.20
2023-08-22T19:40:50.158Z,4.57
2023-08-22T19:42:51.730Z,4.60
2023-08-22T19:44:54.831Z,5.80
2023-08-22T19:46:57.830Z,4.57
2023-08-22T19:48:59.857Z,3.90
2023-08-22T19:51:04.014Z,4.40
2023-08-22T19:53:06.091Z,4.22
2023-08-22T19:55:08.302Z,4.35
2023-08-22T19:57:10.499Z,4.50
2023-08-22T19:59:12.191Z,3.90
2023-08-22T20:01:13.785Z,4.63
2023-08-22T20:03:15.436Z,4.35
2023-08-22T20:05:17.681Z,4.43
2023-08-22T20:07:19.296Z,4.75
2023-08-22T20:09:21.386Z,5.22
2023-08-22T20:11:23.376Z,5.10
2023-08-22T20:13:25.221Z,3.67
2023-08-22T20:15:26.821Z,4.75
2023-08-22T20:17:28.505Z,4.80
2023-08-22T20:19:30.116Z,4.97
2023-08-22T20:21:31.713Z,4.90
2023-08-22T20:23:33.368Z,4.70
2023-08-22T20:25:37.414Z,3.92
2023-08-22T20:27:39.015Z,5.15
2023-08-22T20:29:40.661Z,4.82
2023-08-22T20:31:42.377Z,4.35
2023-08-22T20:33:44.842Z,4.55
2023-08-22T20:37:51.975Z,4.85
2023-08-22T20:39:53.688Z,4.10
2023-08-22T20:41:58.137Z,4.70
2023-08-22T20:43:59.929Z,4.57
2023-08-22T20:48:04.196Z,4.75
2023-08-22T20:50:06.209Z,4.22
2023-08-22T20:52:07.805Z,5.05
2023-08-22T20:54:09.671Z,4.10
2023-08-22T20:56:11.342Z,4.25
2023-08-22T20:58:12.911Z,4.13
2023-08-22T21:00:16.470Z,4.43
2023-08-22T21:02:18.059Z,4.25
2023-08-22T21:04:19.692Z,4.10
2023-08-22T21:06:21.292Z,4.35
2023-08-22T21:08:23.182Z,4.30
2023-08-22T21:12:26.546Z,4.03
2023-08-22T21:14:32.204Z,4.57
2023-08-22T21:16:34.352Z,4.35
2023-08-22T21:18:36.574Z,4.60
2023-08-22T21:20:38.223Z,4.10
2023-08-22T21:24:45.548Z,4.55
2023-08-22T21:26:47.781Z,4.20
2023-08-22T21:28:49.427Z,4.00
2023-08-22T21:30:52.498Z,3.92
2023-08-22T21:32:54.275Z,4.20
2023-08-22T21:34:55.974Z,4.28
2023-08-22T21:36:57.942Z,3.80
2023-08-22T21:41:02.441Z,4.15
2023-08-22T21:43:04.145Z,3.42
2023-08-22T21:45:15.392Z,3.65
2023-08-22T21:47:16.956Z,3.70
2023-08-22T21:49:18.997Z,3.80
2023-08-22T21:53:22.946Z,3.70
2023-08-22T21:55:24.493Z,4.38
2023-08-22T21:59:28.249Z,3.90
2023-08-22T22:01:30.621Z,3.75
2023-08-22T22:03:32.355Z,3.60
2023-08-22T22:05:34.148Z,3.80
2023-08-22T22:07:35.869Z,3.65
2023-08-22T22:09:37.457Z,4.22
2023-08-22T22:11:38.997Z,4.00
2023-08-22T22:13:41.186Z,3.42
2023-08-22T22:15:42.830Z,3.72
2023-08-22T22:17:44.447Z,3.83
2023-08-22T22:19:46.070Z,4.20
2023-08-22T22:21:47.739Z,4.10
2023-08-22T22:23:49.392Z,4.60
2023-08-22T22:26:00.649Z,4.50
2023-08-22T22:28:02.281Z,4.15
2023-08-22T22:30:04.897Z,3.40
2023-08-22T22:32:06.552Z,3.60
2023-08-22T22:34:08.180Z,3.67
2023-08-22T22:36:10.838Z,3.50
2023-08-22T22:38:12.511Z,3.80
2023-08-22T22:40:14.200Z,3.67
2023-08-22T22:42:15.724Z,3.92
2023-08-22T22:44:17.720Z,4.10
2023-08-22T22:46:19.302Z,3.70
2023-08-22T22:48:20.860Z,3.75
2023-08-22T22:50:22.426Z,4.15
2023-08-22T22:52:23.975Z,4.05
2023-08-22T22:54:25.690Z,4.03
2023-08-22T22:56:27.347Z,3.67
2023-08-22T22:58:29.259Z,3.78
2023-08-22T23:00:30.832Z,4.38
2023-08-22T23:02:32.857Z,3.88
2023-08-22T23:06:36.295Z,3.70
2023-08-22T23:08:37.940Z,3.92
2023-08-22T23:10:39.658Z,4.28
2023-08-22T23:14:43.354Z,3.45
2023-08-22T23:16:44.982Z,3.17
2023-08-22T23:18:46.561Z,3.42
2023-08-22T23:20:48.308Z,3.65
2023-08-22T23:22:50.666Z,3.88
2023-08-22T23:24:52.215Z,3.63
2023-08-22T23:26:53.758Z,3.10
2023-08-22T23:28:55.306Z,3.28
2023-08-22T23:30:56.902Z,3.80
2023-08-22T23:32:58.518Z,3.60
2023-08-22T23:35:02.077Z,3.40
2023-08-22T23:37:03.982Z,3.97
2023-08-22T23:41:07.317Z,3.33
2023-08-22T23:43:08.993Z,3.72
2023-08-22T23:45:10.702Z,3.78
2023-08-22T23:47:13.160Z,4.13
2023-08-22T23:49:14.708Z,3.22
2023-08-22T23:51:17.646Z,3.40
2023-08-22T23:53:20.494Z,3.78
2023-08-22T23:55:22.349Z,3.47
2023-08-22T23:57:23.933Z,3.60
2023-08-22T23:59:25.484Z,4.15
